createdAt,value
2018-08-28T00:01:48.431Z,81.61
2018-08-28T00:04:17.306Z,80.78
2018-08-28T00:06:46.159Z,79.69
2018-08-28T00:09:17.160Z,80.26
2018-08-28T00:11:46.060Z,79.71
2018-08-28T00:14:14.866Z,79.45
2018-08-28T00:16:43.757Z,79.68
2018-08-28T00:19:13.861Z,79.71
2018-08-28T00:21:45.944Z,78.84
2018-08-28T00:24:14.782Z,78.50
2018-08-28T00:26:43.572Z,78.42
2018-08-28T00:29:12.710Z,77.98
2018-08-28T00:31:41.512Z,78.11
2018-08-28T00:34:10.500Z,77.82
2018-08-28T00:36:39.332Z,78.24
2018-08-28T00:39:08.556Z,78.55
2018-08-28T00:41:37.444Z,79.33
2018-08-28T00:44:06.304Z,78.93
2018-08-28T00:46:35.315Z,78.41
2018-08-28T00:49:04.181Z,79.22
2018-08-28T00:51:33.084Z,80.05
2018-08-28T00:54:01.914Z,79.53
2018-08-28T00:56:30.779Z,79.87
2018-08-28T00:58:59.656Z,80.22
2018-08-28T01:01:28.490Z,80.09
2018-08-28T01:03:57.303Z,79.84
2018-08-28T01:06:26.192Z,80.06
2018-08-28T01:08:55.052Z,80.26
2018-08-28T01:11:23.975Z,80.20
2018-08-28T01:13:52.727Z,80.66
2018-08-28T01:16:21.546Z,80.46
2018-08-28T01:18:50.343Z,80.49
2018-08-28T01:21:19.249Z,80.81
2018-08-28T01:23:48.219Z,80.10
2018-08-28T01:26:17.381Z,80.02
2018-08-28T01:28:46.208Z,80.12
2018-08-28T01:31:15.040Z,80.57
2018-08-28T01:33:43.972Z,79.81
2018-08-28T01:36:12.811Z,80.56
2018-08-28T01:38:41.646Z,80.79
2018-08-28T01:41:10.435Z,81.76
2018-08-28T01:43:39.266Z,82.12
2018-08-28T01:46:08.080Z,82.19
2018-08-28T01:48:36.989Z,82.11
2018-08-28T01:51:06.068Z,81.92
2018-08-28T01:53:34.997Z,82.09
2018-08-28T01:56:04.059Z,82.51
2018-08-28T01:58:33.187Z,82.84
2018-08-28T02:01:02.050Z,82.91
2018-08-28T02:03:30.908Z,83.48
2018-08-28T02:05:59.658Z,83.50
2018-08-28T02:08:28.518Z,83.53
2018-08-28T02:10:57.286Z,83.20
2018-08-28T02:13:26.199Z,83.08
2018-08-28T02:15:54.983Z,83.40
2018-08-28T02:18:23.827Z,83.16
2018-08-28T02:20:52.720Z,83.92
2018-08-28T02:23:21.563Z,83.83
2018-08-28T02:25:50.548Z,84.20
2018-08-28T02:28:19.407Z,83.98
2018-08-28T02:30:48.548Z,84.84
2018-08-28T02:33:17.395Z,84.48
2018-08-28T02:35:46.179Z,85.06
2018-08-28T02:38:15.020Z,84.88
2018-08-28T02:40:43.836Z,85.87
2018-08-28T02:43:12.595Z,86.65
2018-08-28T02:45:41.398Z,85.70
2018-08-28T02:48:10.484Z,85.85
2018-08-28T02:50:39.380Z,86.21
2018-08-28T02:53:08.141Z,86.42
2018-08-28T02:55:36.979Z,87.33
2018-08-28T02:58:05.775Z,86.87
2018-08-28T03:00:34.603Z,87.11
2018-08-28T03:03:03.528Z,86.43
2018-08-28T03:05:32.391Z,86.50
2018-08-28T03:08:01.191Z,86.41
2018-08-28T03:10:30.141Z,87.00
2018-08-28T03:12:58.964Z,86.65
2018-08-28T03:15:27.991Z,87.74
2018-08-28T03:17:56.739Z,88.03
2018-08-28T03:20:25.622Z,87.88
2018-08-28T03:22:54.484Z,88.40
2018-08-28T03:25:26.264Z,87.78
2018-08-28T03:27:55.125Z,88.12
2018-08-28T03:30:23.941Z,88.12
2018-08-28T03:32:52.739Z,88.53
2018-08-28T03:35:21.517Z,88.58
2018-08-28T03:37:50.310Z,88.44
2018-08-28T03:40:19.203Z,88.77
2018-08-28T03:42:48.262Z,88.40
2018-08-28T03:45:17.092Z,88.42
2018-08-28T03:47:45.928Z,88.88
2018-08-28T03:50:14.709Z,90.02
2018-08-28T03:52:43.676Z,89.39
2018-08-28T03:55:12.496Z,89.08
2018-08-28T03:57:41.318Z,89.08
2018-08-28T04:00:10.209Z,88.85
2018-08-28T04:02:39.189Z,89.50
2018-08-28T04:05:08.132Z,89.04
2018-08-28T04:07:36.987Z,89.33
2018-08-28T04:10:06.012Z,89.77
2018-08-28T04:12:34.875Z,89.59
2018-08-28T04:15:03.764Z,90.03
2018-08-28T04:17:37.425Z,89.44
2018-08-28T04:20:06.337Z,90.06
2018-08-28T04:22:35.611Z,90.16
2018-08-28T04:25:04.432Z,89.42
2018-08-28T04:27:33.313Z,90.21
2018-08-28T04:30:02.117Z,89.50
2018-08-28T04:32:31.032Z,90.25
2018-08-28T04:34:59.822Z,90.78
2018-08-28T04:37:28.703Z,90.22
2018-08-28T04:39:57.942Z,90.05
2018-08-28T04:42:26.718Z,90.02
2018-08-28T04:45:00.487Z,90.83
2018-08-28T04:47:29.323Z,90.45
2018-08-28T04:49:58.259Z,89.92
2018-08-28T04:52:27.039Z,90.18
2018-08-28T04:54:55.899Z,89.82
2018-08-28T04:57:25.141Z,89.54
2018-08-28T04:59:53.964Z,89.81
2018-08-28T05:02:22.892Z,89.70
2018-08-28T05:04:51.709Z,89.07
2018-08-28T05:07:20.463Z,90.35
2018-08-28T05:09:49.279Z,89.71
2018-08-28T05:12:18.071Z,89.61
2018-08-28T05:14:47.064Z,88.87
2018-08-28T05:17:16.149Z,88.62
2018-08-28T05:19:45.035Z,88.85
2018-08-28T05:22:13.856Z,88.55
2018-08-28T05:24:42.708Z,89.26
2018-08-28T05:27:11.683Z,88.49
2018-08-28T05:29:40.569Z,88.20
2018-08-28T05:32:09.314Z,87.57
2018-08-28T05:34:38.252Z,87.19
2018-08-28T05:37:07.047Z,87.76
2018-08-28T05:39:35.980Z,87.82
2018-08-28T05:42:04.844Z,86.84
2018-08-28T05:44:33.621Z,86.57
2018-08-28T05:47:02.650Z,85.10
2018-08-28T05:49:31.487Z,85.69
2018-08-28T05:52:00.334Z,85.73
2018-08-28T05:54:29.211Z,85.75
2018-08-28T05:56:58.025Z,84.73
2018-08-28T05:59:26.821Z,84.54
2018-08-28T06:01:55.728Z,83.30
2018-08-28T06:04:24.559Z,83.31
2018-08-28T06:06:53.387Z,81.66
2018-08-28T06:09:22.285Z,81.82
2018-08-28T06:11:51.124Z,81.54
2018-08-28T06:14:19.884Z,81.60
2018-08-28T06:16:48.852Z,81.19
2018-08-28T06:19:17.652Z,80.66
2018-08-28T06:21:46.500Z,80.67
2018-08-28T06:24:15.275Z,80.96
2018-08-28T06:26:44.156Z,80.60
2018-08-28T06:29:13.208Z,79.86
2018-08-28T06:31:42.144Z,80.26
2018-08-28T06:34:11.052Z,80.25
2018-08-28T06:36:40.037Z,79.15
2018-08-28T06:39:09.714Z,77.16
2018-08-28T06:41:40.104Z,76.88
2018-08-28T06:44:08.955Z,77.21
2018-08-28T06:46:37.896Z,76.86
2018-08-28T06:49:06.744Z,76.24
2018-08-28T06:51:35.637Z,75.37
2018-08-28T06:54:04.715Z,76.65
2018-08-28T06:56:33.502Z,76.40
2018-08-28T06:59:05.487Z,76.75
2018-08-28T07:01:34.708Z,76.18
2018-08-28T07:04:03.589Z,77.36
2018-08-28T07:06:32.610Z,75.75
2018-08-28T07:09:01.466Z,75.90
2018-08-28T07:11:30.249Z,75.65
2018-08-28T07:13:59.439Z,76.42
2018-08-28T07:16:28.349Z,75.08
2018-08-28T07:18:57.167Z,75.40
2018-08-28T07:21:26.341Z,74.15
2018-08-28T07:23:55.159Z,73.38
2018-08-28T07:26:24.005Z,72.72
2018-08-28T07:28:53.216Z,72.73
2018-08-28T07:31:22.074Z,71.62
2018-08-28T07:33:50.829Z,71.86
2018-08-28T07:36:20.198Z,71.23
2018-08-28T07:38:49.000Z,70.84
2018-08-28T07:41:17.855Z,70.49
2018-08-28T07:43:46.972Z,69.33
2018-08-28T07:46:15.759Z,69.36
2018-08-28T07:48:44.579Z,68.36
2018-08-28T07:51:13.763Z,69.27
2018-08-28T07:53:42.655Z,69.13
2018-08-28T07:56:11.473Z,69.79
2018-08-28T07:58:40.647Z,67.46
2018-08-28T08:01:09.511Z,67.98
2018-08-28T08:03:38.316Z,67.29
2018-08-28T08:06:07.626Z,66.43
2018-08-28T08:08:36.445Z,66.78
2018-08-28T08:11:05.441Z,66.14
2018-08-28T08:13:34.271Z,66.52
2018-08-28T08:16:03.114Z,66.45
2018-08-28T08:18:31.964Z,65.32
2018-08-28T08:21:00.736Z,64.23
2018-08-28T08:23:29.607Z,64.19
2018-08-28T08:25:58.377Z,63.67
2018-08-28T08:28:27.189Z,63.25
2018-08-28T08:30:56.047Z,62.10
2018-08-28T08:33:25.709Z,62.68
2018-08-28T08:35:54.684Z,62.85
2018-08-28T08:38:23.480Z,61.84
2018-08-28T08:40:52.345Z,61.64
2018-08-28T08:43:21.188Z,61.39
2018-08-28T08:45:50.029Z,61.98
2018-08-28T08:48:18.819Z,59.60
2018-08-28T08:50:47.687Z,60.29
2018-08-28T08:53:16.460Z,59.61
2018-08-28T08:55:45.379Z,59.44
2018-08-28T08:58:14.228Z,57.74
2018-08-28T09:00:43.125Z,58.16
2018-08-28T09:03:11.913Z,57.53
2018-08-28T09:05:40.729Z,58.15
2018-08-28T09:08:09.581Z,56.12
2018-08-28T09:10:38.460Z,54.76
2018-08-28T09:13:07.295Z,57.35
2018-08-28T09:15:36.135Z,56.35
2018-08-28T09:18:05.148Z,56.20
2018-08-28T09:20:34.036Z,57.52
2018-08-28T09:23:02.881Z,59.21
2018-08-28T09:25:31.728Z,58.16
2018-08-28T09:28:00.503Z,60.61
2018-08-28T09:30:29.339Z,59.96
2018-08-28T09:32:58.185Z,61.95
2018-08-28T09:35:26.955Z,61.99
2018-08-28T09:37:55.757Z,60.64
2018-08-28T09:40:24.509Z,60.97
2018-08-28T09:42:53.344Z,61.92
2018-08-28T09:45:22.251Z,61.65
2018-08-28T09:47:51.094Z,61.14
2018-08-28T09:50:19.955Z,60.01
2018-08-28T09:52:48.795Z,58.15
2018-08-28T09:55:17.559Z,57.65
2018-08-28T09:57:46.463Z,58.39
2018-08-28T10:00:20.899Z,58.84
2018-08-28T10:02:49.853Z,60.39
2018-08-28T10:05:18.960Z,60.10
2018-08-28T10:07:48.015Z,58.53
2018-08-28T10:10:16.801Z,59.79
2018-08-28T10:12:45.643Z,58.66
2018-08-28T10:15:14.391Z,57.92
2018-08-28T10:17:43.679Z,57.02
2018-08-28T10:20:12.696Z,57.34
2018-08-28T10:22:41.539Z,57.18
2018-08-28T10:25:10.369Z,55.71
2018-08-28T10:27:39.236Z,56.41
2018-08-28T10:30:08.400Z,55.19
2018-08-28T10:32:37.303Z,54.02
2018-08-28T10:35:06.076Z,53.59
2018-08-28T10:37:34.847Z,52.54
2018-08-28T10:40:03.762Z,52.05
2018-08-28T10:42:32.552Z,52.95
2018-08-28T10:45:07.637Z,52.77
2018-08-28T10:47:36.431Z,50.64
2018-08-28T10:50:11.213Z,51.63
2018-08-28T10:52:39.989Z,51.88
2018-08-28T10:55:08.935Z,50.85
2018-08-28T10:57:37.715Z,52.49
2018-08-28T11:00:06.732Z,52.55
2018-08-28T11:02:35.561Z,54.13
2018-08-28T11:05:04.833Z,54.90
2018-08-28T11:07:33.668Z,52.49
2018-08-28T11:10:02.612Z,53.43
2018-08-28T11:12:31.409Z,54.27
2018-08-28T11:15:00.205Z,55.00
2018-08-28T11:17:28.995Z,55.25
2018-08-28T11:19:57.916Z,55.50
2018-08-28T11:22:26.769Z,55.97
2018-08-28T11:24:55.592Z,57.35
2018-08-28T11:27:24.370Z,57.46
2018-08-28T11:29:53.177Z,57.01
2018-08-28T11:32:22.107Z,57.00
2018-08-28T11:34:50.934Z,58.88
2018-08-28T11:37:19.684Z,56.95
2018-08-28T11:39:48.448Z,57.42
2018-08-28T11:42:17.280Z,56.99
2018-08-28T11:44:46.136Z,54.42
2018-08-28T11:47:15.147Z,53.61
2018-08-28T11:49:43.864Z,53.77
2018-08-28T11:52:12.725Z,54.38
2018-08-28T11:54:41.480Z,54.23
2018-08-28T11:57:10.380Z,54.36
2018-08-28T11:59:39.161Z,55.49
2018-08-28T12:02:08.093Z,54.07
2018-08-28T12:04:36.847Z,55.10
2018-08-28T12:07:06.148Z,56.19
2018-08-28T12:09:35.823Z,56.09
2018-08-28T12:12:04.707Z,55.79
2018-08-28T12:14:33.472Z,54.96
2018-08-28T12:17:02.271Z,55.47
2018-08-28T12:19:31.204Z,54.87
2018-08-28T12:22:00.237Z,55.60
2018-08-28T12:24:29.147Z,54.99
2018-08-28T12:26:57.949Z,55.21
2018-08-28T12:29:26.766Z,54.59
2018-08-28T12:31:55.606Z,54.40
2018-08-28T12:34:24.455Z,53.99
2018-08-28T12:36:53.283Z,52.82
2018-08-28T12:39:23.800Z,54.76
2018-08-28T12:41:52.872Z,52.53
2018-08-28T12:44:21.644Z,51.36
2018-08-28T12:46:50.534Z,50.89
2018-08-28T12:49:19.364Z,50.58
2018-08-28T12:51:48.117Z,50.64
2018-08-28T12:54:16.928Z,51.53
2018-08-28T12:56:45.812Z,50.37
2018-08-28T12:59:14.784Z,50.86
2018-08-28T13:01:43.565Z,50.50
2018-08-28T13:04:12.352Z,49.42
2018-08-28T13:06:41.164Z,49.84
2018-08-28T13:09:11.111Z,51.06
2018-08-28T13:11:41.233Z,50.43
2018-08-28T13:14:10.076Z,50.25
2018-08-28T13:16:38.846Z,48.90
2018-08-28T13:19:09.962Z,48.32
2018-08-28T13:21:38.730Z,48.99
2018-08-28T13:24:07.620Z,48.35
2018-08-28T13:26:36.419Z,47.56
2018-08-28T13:29:05.495Z,47.62
2018-08-28T13:31:34.296Z,46.83
2018-08-28T13:34:03.085Z,47.14
2018-08-28T13:36:32.139Z,46.84
2018-08-28T13:39:01.032Z,46.46
2018-08-28T13:41:30.155Z,46.07
2018-08-28T13:43:58.931Z,45.63
2018-08-28T13:46:27.737Z,45.85
2018-08-28T13:48:56.547Z,46.40
2018-08-28T13:51:25.481Z,45.35
2018-08-28T13:53:54.380Z,44.90
2018-08-28T13:56:23.150Z,45.12
2018-08-28T13:58:51.888Z,43.80
2018-08-28T14:01:20.761Z,43.33
2018-08-28T14:03:49.581Z,44.62
2018-08-28T14:06:18.713Z,46.35
2018-08-28T14:08:47.598Z,44.22
2018-08-28T14:11:16.418Z,44.36
2018-08-28T14:13:45.611Z,45.04
2018-08-28T14:16:14.773Z,42.72
2018-08-28T14:18:43.575Z,43.81
2018-08-28T14:21:12.448Z,43.33
2018-08-28T14:23:41.335Z,43.13
2018-08-28T14:26:10.372Z,44.49
2018-08-28T14:28:39.143Z,44.80
2018-08-28T14:31:08.537Z,44.76
2018-08-28T14:33:37.324Z,45.10
2018-08-28T14:36:06.172Z,45.97
2018-08-28T14:38:35.043Z,44.89
2018-08-28T14:41:03.850Z,45.69
2018-08-28T14:43:33.076Z,45.81
2018-08-28T14:46:01.876Z,45.80
2018-08-28T14:48:30.679Z,46.03
2018-08-28T14:50:59.515Z,45.94
2018-08-28T14:53:28.359Z,46.74
2018-08-28T14:55:57.136Z,46.64
2018-08-28T14:58:26.007Z,47.70
2018-08-28T15:00:54.764Z,48.14
2018-08-28T15:03:23.623Z,48.00
2018-08-28T15:05:52.532Z,48.73
2018-08-28T15:08:21.384Z,48.65
2018-08-28T15:10:50.176Z,48.27
2018-08-28T15:13:19.112Z,47.98
2018-08-28T15:15:47.963Z,48.51
2018-08-28T15:18:16.767Z,48.22
2018-08-28T15:20:45.577Z,47.57
2018-08-28T15:23:14.457Z,48.88
2018-08-28T15:25:43.237Z,48.19
2018-08-28T15:28:12.112Z,48.69
2018-08-28T15:30:40.851Z,48.19
2018-08-28T15:33:09.634Z,48.13
2018-08-28T15:35:38.912Z,47.53
2018-08-28T15:38:07.791Z,48.15
2018-08-28T15:40:36.679Z,48.05
2018-08-28T15:43:05.922Z,49.42
2018-08-28T15:45:34.727Z,48.57
2018-08-28T15:48:03.532Z,48.95
2018-08-28T15:50:32.396Z,48.09
2018-08-28T15:53:01.220Z,48.79
2018-08-28T15:55:30.065Z,48.99
2018-08-28T15:57:58.851Z,49.31
2018-08-28T16:00:27.818Z,49.75
2018-08-28T16:02:56.595Z,50.62
2018-08-28T16:05:25.454Z,50.27
2018-08-28T16:07:54.496Z,50.77
2018-08-28T16:10:23.432Z,51.27
2018-08-28T16:12:52.241Z,49.53
2018-08-28T16:15:21.203Z,50.24
2018-08-28T16:17:50.064Z,49.24
2018-08-28T16:20:19.230Z,49.66
2018-08-28T16:22:53.615Z,51.02
2018-08-28T16:25:22.441Z,50.06
2018-08-28T16:27:51.698Z,52.27
2018-08-28T16:30:20.556Z,52.94
2018-08-28T16:32:49.375Z,53.73
2018-08-28T16:35:18.127Z,54.42
2018-08-28T16:37:47.452Z,54.20
2018-08-28T16:40:16.459Z,54.80
2018-08-28T16:42:45.380Z,54.02
2018-08-28T16:45:14.112Z,55.26
2018-08-28T16:47:42.923Z,54.38
2018-08-28T16:50:11.770Z,55.54
2018-08-28T16:52:40.892Z,56.54
2018-08-28T16:55:09.699Z,55.35
2018-08-28T16:57:38.517Z,55.21
2018-08-28T17:00:07.431Z,56.58
2018-08-28T17:02:36.371Z,56.47
2018-08-28T17:05:05.383Z,57.97
2018-08-28T17:07:34.213Z,60.15
2018-08-28T17:10:03.396Z,59.84
2018-08-28T17:12:32.213Z,58.82
2018-08-28T17:15:01.038Z,59.43
2018-08-28T17:17:30.061Z,58.55
2018-08-28T17:20:01.997Z,59.31
2018-08-28T17:22:31.136Z,59.79
2018-08-28T17:25:00.291Z,59.66
2018-08-28T17:27:29.213Z,59.04
2018-08-28T17:29:58.363Z,61.18
2018-08-28T17:32:27.136Z,62.91
2018-08-28T17:34:55.936Z,62.04
2018-08-28T17:37:25.012Z,62.59
2018-08-28T17:39:53.884Z,62.91
2018-08-28T17:42:22.729Z,62.40
2018-08-28T17:44:51.692Z,62.37
2018-08-28T17:47:20.530Z,62.45
2018-08-28T17:49:49.292Z,62.86
2018-08-28T17:52:18.556Z,62.73
2018-08-28T17:54:47.429Z,63.13
2018-08-28T17:57:16.217Z,63.32
2018-08-28T17:59:45.192Z,63.29
2018-08-28T18:02:13.988Z,63.82
2018-08-28T18:04:42.754Z,63.61
2018-08-28T18:07:12.130Z,63.70
2018-08-28T18:09:41.032Z,62.58
2018-08-28T18:12:09.991Z,63.04
2018-08-28T18:14:39.484Z,63.48
2018-08-28T18:17:14.917Z,63.13
2018-08-28T18:19:44.075Z,63.55
2018-08-28T18:22:14.196Z,63.03
2018-08-28T18:24:43.151Z,62.59
2018-08-28T18:27:12.264Z,62.45
2018-08-28T18:29:41.076Z,62.62
2018-08-28T18:32:10.037Z,61.91
2018-08-28T18:34:39.323Z,62.36
2018-08-28T18:37:08.107Z,61.87
2018-08-28T18:39:37.220Z,62.42
2018-08-28T18:42:06.543Z,62.62
2018-08-28T18:44:35.395Z,62.60
2018-08-28T18:47:04.389Z,61.84
2018-08-28T18:49:33.757Z,62.46
2018-08-28T18:52:02.701Z,62.57
2018-08-28T18:54:31.696Z,62.63
2018-08-28T18:57:00.578Z,63.12
2018-08-28T18:59:29.384Z,63.55
2018-08-28T19:01:58.191Z,64.00
2018-08-28T19:04:26.952Z,64.50
2018-08-28T19:06:56.083Z,64.99
2018-08-28T19:09:25.093Z,64.69
2018-08-28T19:11:53.954Z,66.44
2018-08-28T19:14:23.072Z,65.66
2018-08-28T19:16:51.869Z,66.66
2018-08-28T19:19:20.682Z,67.31
2018-08-28T19:21:49.739Z,68.77
2018-08-28T19:24:18.536Z,67.95
2018-08-28T19:26:47.303Z,67.87
2018-08-28T19:29:16.424Z,68.01
2018-08-28T19:31:45.235Z,67.43
2018-08-28T19:34:14.023Z,67.53
2018-08-28T19:36:43.092Z,67.46
2018-08-28T19:39:11.849Z,67.20
2018-08-28T19:41:40.687Z,67.41
2018-08-28T19:44:10.116Z,67.61
2018-08-28T19:46:38.906Z,68.01
2018-08-28T19:49:07.697Z,69.35
2018-08-28T19:51:36.715Z,69.75
2018-08-28T19:54:05.772Z,70.03
2018-08-28T19:56:34.547Z,70.08
2018-08-28T19:59:03.666Z,69.91
2018-08-28T20:01:32.454Z,71.05
2018-08-28T20:04:01.380Z,70.54
2018-08-28T20:06:30.408Z,70.29
2018-08-28T20:08:59.266Z,70.41
2018-08-28T20:11:28.120Z,71.15
2018-08-28T20:13:57.028Z,70.77
2018-08-28T20:16:25.824Z,71.35
2018-08-28T20:18:54.604Z,71.05
2018-08-28T20:21:23.452Z,72.04
2018-08-28T20:23:52.303Z,71.85
2018-08-28T20:26:21.110Z,72.54
2018-08-28T20:28:49.915Z,72.40
2018-08-28T20:31:18.768Z,72.93
2018-08-28T20:33:47.893Z,72.76
2018-08-28T20:36:16.759Z,72.11
2018-08-28T20:38:45.707Z,72.90
2018-08-28T20:41:14.651Z,73.47
2018-08-28T20:43:43.495Z,73.94
2018-08-28T20:46:12.328Z,74.82
2018-08-28T20:48:41.290Z,75.36
2018-08-28T20:51:10.178Z,75.26
2018-08-28T20:53:38.960Z,75.10
2018-08-28T20:56:07.824Z,75.31
2018-08-28T20:58:36.627Z,75.73
2018-08-28T21:01:05.838Z,74.46
2018-08-28T21:03:35.162Z,75.38
2018-08-28T21:06:04.042Z,74.92
2018-08-28T21:08:32.796Z,74.87
2018-08-28T21:11:01.648Z,75.07
2018-08-28T21:13:30.770Z,74.73
2018-08-28T21:15:59.908Z,74.84
2018-08-28T21:18:28.707Z,75.52
2018-08-28T21:20:57.493Z,75.78
2018-08-28T21:23:26.462Z,75.79
2018-08-28T21:25:55.344Z,75.75
2018-08-28T21:28:24.127Z,74.80
2018-08-28T21:30:52.900Z,75.23
2018-08-28T21:33:21.819Z,75.73
2018-08-28T21:35:50.651Z,76.14
2018-08-28T21:38:19.523Z,75.93
2018-08-28T21:40:48.300Z,76.13
2018-08-28T21:43:17.140Z,77.39
2018-08-28T21:45:45.924Z,77.53
2018-08-28T21:48:14.791Z,79.34
2018-08-28T21:50:43.768Z,78.86
2018-08-28T21:53:12.603Z,78.65
2018-08-28T21:55:41.360Z,78.02
2018-08-28T21:58:10.188Z,78.08
2018-08-28T22:00:39.150Z,77.41
2018-08-28T22:03:11.259Z,77.38
2018-08-28T22:05:40.080Z,76.72
2018-08-28T22:08:08.843Z,77.09
2018-08-28T22:10:37.917Z,76.67
2018-08-28T22:13:07.207Z,76.52
2018-08-28T22:15:36.019Z,76.85
2018-08-28T22:18:05.183Z,76.70
2018-08-28T22:20:34.051Z,76.36
2018-08-28T22:23:02.839Z,76.39
2018-08-28T22:25:31.845Z,76.55
2018-08-28T22:28:00.735Z,77.73
2018-08-28T22:30:29.499Z,77.44
2018-08-28T22:32:58.639Z,77.91
2018-08-28T22:35:27.396Z,78.89
2018-08-28T22:37:56.173Z,78.09
2018-08-28T22:40:25.474Z,78.05
2018-08-28T22:42:54.221Z,78.12
2018-08-28T22:45:23.005Z,78.06
2018-08-28T22:47:51.812Z,79.37
2018-08-28T22:50:20.892Z,79.01
2018-08-28T22:52:51.501Z,78.61
2018-08-28T22:55:20.611Z,78.32
2018-08-28T22:57:49.411Z,79.20
2018-08-28T23:00:21.752Z,79.23
2018-08-28T23:02:52.137Z,79.50
2018-08-28T23:05:21.146Z,79.09
2018-08-28T23:07:50.708Z,78.85
2018-08-28T23:10:19.587Z,79.30
2018-08-28T23:12:48.604Z,79.29
2018-08-28T23:15:17.693Z,79.46
2018-08-28T23:17:46.521Z,79.39
2018-08-28T23:20:15.487Z,80.18
2018-08-28T23:22:44.410Z,80.73
2018-08-28T23:25:13.202Z,80.74
2018-08-28T23:27:42.103Z,80.80
2018-08-28T23:30:11.308Z,81.88
2018-08-28T23:32:40.077Z,80.89
2018-08-28T23:35:08.863Z,81.89
2018-08-28T23:37:38.035Z,80.92
2018-08-28T23:40:06.914Z,80.71
2018-08-28T23:42:35.728Z,81.07
2018-08-28T23:45:05.648Z,81.76
2018-08-28T23:47:34.423Z,80.83
2018-08-28T23:50:03.262Z,80.41
2018-08-28T23:52:32.955Z,80.43
2018-08-28T23:55:01.815Z,80.76
2018-08-28T23:57:30.646Z,80.54
2018-08-28T23:59:59.655Z,80.91
